Fehn Calais — V2CI3 — position and weather

sailwx.info

Track history (hours):
 
Tides and Currents Weather Stations Pressure Air Temp Water Temp Dewpoint Dewpoint Depression Visibility Wind Speed Wind Dir Waves Ship Positions

Fehn Calais

Last reported at 2014-Aug-22 23:32 UTC. Time now 2014-Aug-22 23:38 UTC.
Position N 51°47' E 003°20'.

Length 83 m; draft 3.1 m.

Type: Ship. MMSI: 305009000.

Date/timePositionNaut miles runAvg speedWind from/ knotsBaromVisibWave heightAir tempDewpointWater temp
2014-Aug-22 23:32N 51°47' E 003°20'0 0.0
2014-Aug-22 22:32N 51°47' E 003°20'0 0.0
2014-Aug-22 02:32N 51°47' E 003°20'1 0.1
2014-Aug-21 21:32N 51°47' E 003°20'45 2.8
2014-Aug-21 05:33N 51°59' E 002°09'5 5.0
2014-Aug-21 04:33N 51°60' E 002°01'5 4.8
2014-Aug-21 03:33N 52°00' E 001°53'5 5.0
2014-Aug-21 02:33N 52°01' E 001°45'5 4.8
2014-Aug-21 01:33N 52°01' E 001°37'6 5.9
2014-Aug-21 00:33N 51°57' E 001°31'3 3.3
2014-Aug-20 23:33N 51°57' E 001°26'0 0.0
2014-Aug-20 22:33N 51°57' E 001°26'0 0.0
2014-Aug-20 21:33N 51°57' E 001°26'0 0.0
2014-Aug-20 20:33N 51°57' E 001°26'0 0.1
2014-Aug-20 19:33N 51°57' E 001°26'5 5.3
2014-Aug-20 18:33N 51°58' E 001°17'7 6.7
2014-Aug-20 17:33N 52°02' E 001°09'0 0.2
2014-Aug-20 16:29N 52°02' E 001°09'0 0.0
2014-Aug-20 15:32N 52°02' E 001°09'0 0.0
2014-Aug-20 14:32N 52°02' E 001°09'0 0.0
2014-Aug-20 13:32N 52°02' E 001°09'0 0.0
2014-Aug-20 12:32N 52°02' E 001°09'0 0.0
2014-Aug-20 11:32N 52°02' E 001°09'0 0.0
2014-Aug-20 10:32N 52°02' E 001°09'0 0.0
2014-Aug-20 09:32N 52°02' E 001°09'0 0.0
2014-Aug-20 08:32N 52°02' E 001°09'0 0.0
2014-Aug-20 07:29N 52°02' E 001°09'0 0.0
2014-Aug-20 06:32N 52°02' E 001°09'0 0.0
2014-Aug-20 05:32N 52°02' E 001°09'0 0.0
2014-Aug-20 04:26N 52°02' E 001°09'0 0.0
2014-Aug-20 03:32N 52°02' E 001°09'0 0.0
2014-Aug-20 02:32N 52°02' E 001°09'0 0.0
2014-Aug-20 01:29N 52°02' E 001°09'0 0.0
2014-Aug-20 00:29N 52°02' E 001°09'0 0.0
2014-Aug-19 23:30N 52°02' E 001°09'6 6.0
2014-Aug-19 22:33N 51°59' E 001°17'5 5.2
2014-Aug-19 21:31N 51°57' E 001°25'0 0.3
2014-Aug-19 20:31N 51°57' E 001°25'0 0.0
2014-Aug-19 19:31N 51°57' E 001°25'0 0.0
2014-Aug-19 18:34N 51°57' E 001°25'0 0.1
2014-Aug-19 17:31N 51°57' E 001°25'0 0.0
2014-Aug-19 16:31N 51°57' E 001°25'0 0.0
2014-Aug-19 15:31N 51°57' E 001°25'0 0.4
2014-Aug-19 14:33N 51°57' E 001°25'6 5.7
2014-Aug-19 13:33N 51°55' E 001°34'5 5.0
2014-Aug-19 12:33N 51°51' E 001°40'8 8.0
2014-Aug-19 11:33N 51°50' E 001°53'8 7.6
2014-Aug-19 10:33N 51°53' E 002°04'35 6.7
2014-Aug-19 05:16N 51°47' E 003°00'9 7.5
2014-Aug-19 04:05N 51°44' E 003°14'5 7.2
2014-Aug-19 03:26N 51°40' E 003°18'9 8.0
2014-Aug-19 02:19N 51°33' E 003°26'6 7.9
2014-Aug-19 01:33N 51°28' E 003°31'8 8.1
2014-Aug-19 00:33N 51°24' E 003°43'6 6.0
2014-Aug-18 23:33N 51°20' E 003°49'3 3.0
2014-Aug-18 22:33N 51°17' E 003°50'8 8.4
2014-Aug-18 21:33N 51°09' E 003°47'4 3.9
2014-Aug-18 20:33N 51°05' E 003°44'0 0.0
2014-Aug-18 19:33N 51°05' E 003°44'0 0.0
2014-Aug-18 18:34N 51°05' E 003°44'0 0.0
2014-Aug-18 17:33N 51°05' E 003°44'0 0.0
2014-Aug-18 16:33N 51°05' E 003°44'0 0.0
2014-Aug-18 15:34N 51°05' E 003°44'0 0.0
2014-Aug-18 14:33N 51°05' E 003°44'0 0.0
2014-Aug-18 13:33N 51°05' E 003°44'0 0.0
2014-Aug-18 12:33N 51°05' E 003°44'0 0.0
2014-Aug-18 11:33N 51°05' E 003°44'0 0.0
2014-Aug-18 10:33N 51°05' E 003°44'0 0.0
2014-Aug-18 09:33N 51°05' E 003°44'0 0.0
2014-Aug-18 08:33N 51°05' E 003°44'0 0.0
2014-Aug-18 07:33N 51°05' E 003°44'0 0.0
2014-Aug-18 06:33N 51°05' E 003°44'0 0.0
2014-Aug-18 05:33N 51°05' E 003°44'0 0.0
2014-Aug-18 04:33N 51°05' E 003°44'0 0.0
2014-Aug-18 03:33N 51°05' E 003°44'0 0.0
2014-Aug-18 02:33N 51°05' E 003°44'0 0.0
2014-Aug-18 01:33N 51°05' E 003°44'0 0.0
2014-Aug-18 00:33N 51°05' E 003°44'0 0.0
2014-Aug-17 18:33N 51°05' E 003°44'0 0.0
2014-Aug-17 17:33N 51°05' E 003°44'0 0.0
2014-Aug-17 16:33N 51°05' E 003°44'0 0.0
2014-Aug-17 15:33N 51°05' E 003°44'0 0.0
2014-Aug-17 14:33N 51°05' E 003°44'0 0.0
2014-Aug-17 13:33N 51°05' E 003°44'0 0.0
2014-Aug-17 12:33N 51°05' E 003°44'0 0.0
2014-Aug-17 11:33N 51°05' E 003°44'0 0.0
2014-Aug-17 10:33N 51°05' E 003°44'0 0.0
2014-Aug-17 09:33N 51°05' E 003°44'0 0.0
2014-Aug-17 08:33N 51°05' E 003°44'0 0.0
2014-Aug-17 07:33N 51°05' E 003°44'0 0.0
2014-Aug-17 06:33N 51°05' E 003°44'0 0.0
2014-Aug-17 05:33N 51°05' E 003°44'0 0.0
2014-Aug-17 04:33N 51°05' E 003°44'0 0.0
2014-Aug-17 03:33N 51°05' E 003°44'0 0.0
2014-Aug-17 02:33N 51°05' E 003°44'4 4.3
2014-Aug-17 01:34N 51°09' E 003°47'8 7.7
2014-Aug-17 00:33N 51°16' E 003°50'3 3.4
2014-Aug-16 23:33N 51°20' E 003°49'6 5.8
2014-Aug-16 22:33N 51°24' E 003°42'5 5.5
2014-Aug-16 21:33N 51°25' E 003°34'5 5.2
2014-Aug-16 20:33N 51°30' E 003°29'5 4.8
2014-Aug-16 19:33N 51°34' E 003°24'6 6.1
2014-Aug-16 18:33N 51°39' E 003°19'63 6.1
2014-Aug-16 08:15N 52°25' E 002°11'5 7.5
2014-Aug-16 07:33N 52°30' E 002°07'7 7.3
2014-Aug-16 06:33N 52°36' E 002°02'7 6.9
2014-Aug-16 05:33N 52°42' E 001°56'7 6.7
2014-Aug-16 04:33N 52°48' E 001°50'8 7.8
2014-Aug-16 03:33N 52°53' E 001°40'8 8.4
2014-Aug-16 02:33N 52°59' E 001°31'9 9.4
2014-Aug-16 01:34N 53°07' E 001°22'1010.0
2014-Aug-16 00:32N 53°15' E 001°12'3110.0
2014-Aug-15 21:27N 53°28' E 000°25'9 9.5
2014-Aug-15 20:33N 53°32' E 000°12'7 7.3
2014-Aug-15 19:33N 53°35' E 000°01'7 6.8
2014-Aug-15 18:33N 53°38' W 000°10'1 1.2
2014-Aug-15 17:33N 53°38' W 000°12'0 0.1
2014-Aug-15 16:32N 53°38' W 000°11'0 0.0
2014-Aug-15 15:33N 53°38' W 000°11'0 0.0
2014-Aug-15 14:32N 53°38' W 000°11'0 0.0
2014-Aug-15 13:18N 53°38' W 000°11'0 0.0
2014-Aug-15 12:32N 53°38' W 000°11'0 0.0
2014-Aug-15 11:33N 53°38' W 000°11'0 0.0
2014-Aug-15 10:09N 53°38' W 000°11'0 0.0
2014-Aug-15 09:23N 53°38' W 000°11'0 0.0
2014-Aug-15 08:26N 53°38' W 000°11'0 0.0
2014-Aug-15 07:26N 53°38' W 000°11'0 0.0
2014-Aug-15 06:30N 53°38' W 000°11'0 0.0
2014-Aug-15 05:33N 53°38' W 000°11'0 0.0
2014-Aug-15 04:32N 53°38' W 000°11'0 0.0
2014-Aug-15 03:32N 53°38' W 000°11'0 0.0
2014-Aug-15 02:32N 53°38' W 000°11'0 0.1
2014-Aug-15 01:34N 53°38' W 000°11'2 1.5
2014-Aug-15 00:33N 53°38' W 000°09'5 4.7
2014-Aug-14 23:34N 53°36' W 000°02'5 5.3
2014-Aug-14 22:33N 53°34' E 000°07'7 6.7
2014-Aug-14 21:33N 53°32' E 000°17'7 7.5
2014-Aug-14 20:33N 53°28' E 000°28'34 8.1
2014-Aug-14 16:23N 53°10' E 001°16'911.1
2014-Aug-14 15:33N 53°03' E 001°26'1111.3
2014-Aug-14 14:33N 52°54' E 001°38'1010.0
2014-Aug-14 13:33N 52°47' E 001°49'9 8.0
2014-Aug-14 12:29N 52°39' E 001°56'6 6.6
2014-Aug-14 11:33N 52°34' E 002°01'6 6.0
2014-Aug-14 10:31N 52°28' E 002°06'56 7.0
2014-Aug-14 02:32N 51°46' E 003°06'7 6.6
2014-Aug-14 01:32N 51°43' E 003°15'9 6.4
2014-Aug-14 00:07N 51°35' E 003°24'4 6.9
2014-Aug-13 23:33N 51°32' E 003°26'6 6.3
2014-Aug-13 22:33N 51°27' E 003°32'7 7.5
2014-Aug-13 21:33N 51°23' E 003°43'5 5.5
2014-Aug-13 20:33N 51°19' E 003°49'6 5.9
2014-Aug-13 19:33N 51°14' E 003°48'8 8.1
2014-Aug-13 18:33N 51°06' E 003°44'1 0.9
2014-Aug-13 17:31N 51°05' E 003°44'0 0.0
2014-Aug-13 16:28N 51°05' E 003°44'0 0.0
2014-Aug-13 15:31N 51°05' E 003°44'0 0.0
2014-Aug-13 14:32N 51°05' E 003°44'0 0.0
2014-Aug-13 13:32N 51°05' E 003°44'0 0.0
2014-Aug-13 12:32N 51°05' E 003°44'0 0.0
2014-Aug-13 11:32N 51°05' E 003°44'0 0.0
2014-Aug-13 10:32N 51°05' E 003°44'0 0.0
2014-Aug-13 09:26N 51°05' E 003°44'0 0.0
2014-Aug-13 08:34N 51°05' E 003°44'0 0.0
2014-Aug-13 07:33N 51°05' E 003°44'0 0.0
2014-Aug-13 06:32N 51°05' E 003°44'0 0.0
2014-Aug-13 05:24N 51°05' E 003°44'0 0.0
2014-Aug-13 04:30N 51°05' E 003°44'0 0.2
2014-Aug-13 03:33N 51°05' E 003°44'8 7.8
2014-Aug-13 02:33N 51°13' E 003°48'7 6.9
2014-Aug-13 01:33N 51°20' E 003°49'1 0.9
2014-Aug-13 00:34N 51°20' E 003°49'5 5.4
2014-Aug-12 23:33N 51°24' E 003°42'  
Track history (hours):
 
Tides and Currents Weather Stations Pressure Air Temp Water Temp Dewpoint Dewpoint Depression Visibility Wind Speed Wind Dir Waves Ship Positions

Fehn Calais

Last reported at 2014-Aug-22 23:32 UTC. Time now 2014-Aug-22 23:38 UTC.
Position N 51°47' E 003°20'.

Length 83 m; draft 3.1 m.

Type: Ship. MMSI: 305009000.

Date/timePositionNaut miles runAvg speedWind from/ knotsBaromVisibWave heightAir tempDewpointWater temp
2014-Aug-22 23:32N 51°47' E 003°20'0 0.0
2014-Aug-22 22:32N 51°47' E 003°20'0 0.0
2014-Aug-22 02:32N 51°47' E 003°20'1 0.1
2014-Aug-21 21:32N 51°47' E 003°20'45 2.8
2014-Aug-21 05:33N 51°59' E 002°09'5 5.0
2014-Aug-21 04:33N 51°60' E 002°01'5 4.8
2014-Aug-21 03:33N 52°00' E 001°53'5 5.0
2014-Aug-21 02:33N 52°01' E 001°45'5 4.8
2014-Aug-21 01:33N 52°01' E 001°37'6 5.9
2014-Aug-21 00:33N 51°57' E 001°31'3 3.3
2014-Aug-20 23:33N 51°57' E 001°26'0 0.0
2014-Aug-20 22:33N 51°57' E 001°26'0 0.0
2014-Aug-20 21:33N 51°57' E 001°26'0 0.0
2014-Aug-20 20:33N 51°57' E 001°26'0 0.1
2014-Aug-20 19:33N 51°57' E 001°26'5 5.3
2014-Aug-20 18:33N 51°58' E 001°17'7 6.7
2014-Aug-20 17:33N 52°02' E 001°09'0 0.2
2014-Aug-20 16:29N 52°02' E 001°09'0 0.0
2014-Aug-20 15:32N 52°02' E 001°09'0 0.0
2014-Aug-20 14:32N 52°02' E 001°09'0 0.0
2014-Aug-20 13:32N 52°02' E 001°09'0 0.0
2014-Aug-20 12:32N 52°02' E 001°09'0 0.0
2014-Aug-20 11:32N 52°02' E 001°09'0 0.0
2014-Aug-20 10:32N 52°02' E 001°09'0 0.0
2014-Aug-20 09:32N 52°02' E 001°09'0 0.0
2014-Aug-20 08:32N 52°02' E 001°09'0 0.0
2014-Aug-20 07:29N 52°02' E 001°09'0 0.0
2014-Aug-20 06:32N 52°02' E 001°09'0 0.0
2014-Aug-20 05:32N 52°02' E 001°09'0 0.0
2014-Aug-20 04:26N 52°02' E 001°09'0 0.0
2014-Aug-20 03:32N 52°02' E 001°09'0 0.0
2014-Aug-20 02:32N 52°02' E 001°09'0 0.0
2014-Aug-20 01:29N 52°02' E 001°09'0 0.0
2014-Aug-20 00:29N 52°02' E 001°09'0 0.0
2014-Aug-19 23:30N 52°02' E 001°09'6 6.0
2014-Aug-19 22:33N 51°59' E 001°17'5 5.2
2014-Aug-19 21:31N 51°57' E 001°25'0 0.3
2014-Aug-19 20:31N 51°57' E 001°25'0 0.0
2014-Aug-19 19:31N 51°57' E 001°25'0 0.0
2014-Aug-19 18:34N 51°57' E 001°25'0 0.1
2014-Aug-19 17:31N 51°57' E 001°25'0 0.0
2014-Aug-19 16:31N 51°57' E 001°25'0 0.0
2014-Aug-19 15:31N 51°57' E 001°25'0 0.4
2014-Aug-19 14:33N 51°57' E 001°25'6 5.7
2014-Aug-19 13:33N 51°55' E 001°34'5 5.0
2014-Aug-19 12:33N 51°51' E 001°40'8 8.0
2014-Aug-19 11:33N 51°50' E 001°53'8 7.6
2014-Aug-19 10:33N 51°53' E 002°04'35 6.7
2014-Aug-19 05:16N 51°47' E 003°00'9 7.5
2014-Aug-19 04:05N 51°44' E 003°14'5 7.2
2014-Aug-19 03:26N 51°40' E 003°18'9 8.0
2014-Aug-19 02:19N 51°33' E 003°26'6 7.9
2014-Aug-19 01:33N 51°28' E 003°31'8 8.1
2014-Aug-19 00:33N 51°24' E 003°43'6 6.0
2014-Aug-18 23:33N 51°20' E 003°49'3 3.0
2014-Aug-18 22:33N 51°17' E 003°50'8 8.4
2014-Aug-18 21:33N 51°09' E 003°47'4 3.9
2014-Aug-18 20:33N 51°05' E 003°44'0 0.0
2014-Aug-18 19:33N 51°05' E 003°44'0 0.0
2014-Aug-18 18:34N 51°05' E 003°44'0 0.0
2014-Aug-18 17:33N 51°05' E 003°44'0 0.0
2014-Aug-18 16:33N 51°05' E 003°44'0 0.0
2014-Aug-18 15:34N 51°05' E 003°44'0 0.0
2014-Aug-18 14:33N 51°05' E 003°44'0 0.0
2014-Aug-18 13:33N 51°05' E 003°44'0 0.0
2014-Aug-18 12:33N 51°05' E 003°44'0 0.0
2014-Aug-18 11:33N 51°05' E 003°44'0 0.0
2014-Aug-18 10:33N 51°05' E 003°44'0 0.0
2014-Aug-18 09:33N 51°05' E 003°44'0 0.0
2014-Aug-18 08:33N 51°05' E 003°44'0 0.0
2014-Aug-18 07:33N 51°05' E 003°44'0 0.0
2014-Aug-18 06:33N 51°05' E 003°44'0 0.0
2014-Aug-18 05:33N 51°05' E 003°44'0 0.0
2014-Aug-18 04:33N 51°05' E 003°44'0 0.0
2014-Aug-18 03:33N 51°05' E 003°44'0 0.0
2014-Aug-18 02:33N 51°05' E 003°44'0 0.0
2014-Aug-18 01:33N 51°05' E 003°44'0 0.0
2014-Aug-18 00:33N 51°05' E 003°44'0 0.0
2014-Aug-17 18:33N 51°05' E 003°44'0 0.0
2014-Aug-17 17:33N 51°05' E 003°44'0 0.0
2014-Aug-17 16:33N 51°05' E 003°44'0 0.0
2014-Aug-17 15:33N 51°05' E 003°44'0 0.0
2014-Aug-17 14:33N 51°05' E 003°44'0 0.0
2014-Aug-17 13:33N 51°05' E 003°44'0 0.0
2014-Aug-17 12:33N 51°05' E 003°44'0 0.0
2014-Aug-17 11:33N 51°05' E 003°44'0 0.0
2014-Aug-17 10:33N 51°05' E 003°44'0 0.0
2014-Aug-17 09:33N 51°05' E 003°44'0 0.0
2014-Aug-17 08:33N 51°05' E 003°44'0 0.0
2014-Aug-17 07:33N 51°05' E 003°44'0 0.0
2014-Aug-17 06:33N 51°05' E 003°44'0 0.0
2014-Aug-17 05:33N 51°05' E 003°44'0 0.0
2014-Aug-17 04:33N 51°05' E 003°44'0 0.0
2014-Aug-17 03:33N 51°05' E 003°44'0 0.0
2014-Aug-17 02:33N 51°05' E 003°44'4 4.3
2014-Aug-17 01:34N 51°09' E 003°47'8 7.7
2014-Aug-17 00:33N 51°16' E 003°50'3 3.4
2014-Aug-16 23:33N 51°20' E 003°49'6 5.8
2014-Aug-16 22:33N 51°24' E 003°42'5 5.5
2014-Aug-16 21:33N 51°25' E 003°34'5 5.2
2014-Aug-16 20:33N 51°30' E 003°29'5 4.8
2014-Aug-16 19:33N 51°34' E 003°24'6 6.1
2014-Aug-16 18:33N 51°39' E 003°19'63 6.1
2014-Aug-16 08:15N 52°25' E 002°11'5 7.5
2014-Aug-16 07:33N 52°30' E 002°07'7 7.3
2014-Aug-16 06:33N 52°36' E 002°02'7 6.9
2014-Aug-16 05:33N 52°42' E 001°56'7 6.7
2014-Aug-16 04:33N 52°48' E 001°50'8 7.8
2014-Aug-16 03:33N 52°53' E 001°40'8 8.4
2014-Aug-16 02:33N 52°59' E 001°31'9 9.4
2014-Aug-16 01:34N 53°07' E 001°22'1010.0
2014-Aug-16 00:32N 53°15' E 001°12'3110.0
2014-Aug-15 21:27N 53°28' E 000°25'9 9.5
2014-Aug-15 20:33N 53°32' E 000°12'7 7.3
2014-Aug-15 19:33N 53°35' E 000°01'7 6.8
2014-Aug-15 18:33N 53°38' W 000°10'1 1.2
2014-Aug-15 17:33N 53°38' W 000°12'0 0.1
2014-Aug-15 16:32N 53°38' W 000°11'0 0.0
2014-Aug-15 15:33N 53°38' W 000°11'0 0.0
2014-Aug-15 14:32N 53°38' W 000°11'0 0.0
2014-Aug-15 13:18N 53°38' W 000°11'0 0.0
2014-Aug-15 12:32N 53°38' W 000°11'0 0.0
2014-Aug-15 11:33N 53°38' W 000°11'0 0.0
2014-Aug-15 10:09N 53°38' W 000°11'0 0.0
2014-Aug-15 09:23N 53°38' W 000°11'0 0.0
2014-Aug-15 08:26N 53°38' W 000°11'0 0.0
2014-Aug-15 07:26N 53°38' W 000°11'0 0.0
2014-Aug-15 06:30N 53°38' W 000°11'0 0.0
2014-Aug-15 05:33N 53°38' W 000°11'0 0.0
2014-Aug-15 04:32N 53°38' W 000°11'0 0.0
2014-Aug-15 03:32N 53°38' W 000°11'0 0.0
2014-Aug-15 02:32N 53°38' W 000°11'0 0.1
2014-Aug-15 01:34N 53°38' W 000°11'2 1.5
2014-Aug-15 00:33N 53°38' W 000°09'5 4.7
2014-Aug-14 23:34N 53°36' W 000°02'5 5.3
2014-Aug-14 22:33N 53°34' E 000°07'7 6.7
2014-Aug-14 21:33N 53°32' E 000°17'7 7.5
2014-Aug-14 20:33N 53°28' E 000°28'34 8.1
2014-Aug-14 16:23N 53°10' E 001°16'911.1
2014-Aug-14 15:33N 53°03' E 001°26'1111.3
2014-Aug-14 14:33N 52°54' E 001°38'1010.0
2014-Aug-14 13:33N 52°47' E 001°49'9 8.0
2014-Aug-14 12:29N 52°39' E 001°56'6 6.6
2014-Aug-14 11:33N 52°34' E 002°01'6 6.0
2014-Aug-14 10:31N 52°28' E 002°06'56 7.0
2014-Aug-14 02:32N 51°46' E 003°06'7 6.6
2014-Aug-14 01:32N 51°43' E 003°15'9 6.4
2014-Aug-14 00:07N 51°35' E 003°24'4 6.9
2014-Aug-13 23:33N 51°32' E 003°26'6 6.3
2014-Aug-13 22:33N 51°27' E 003°32'7 7.5
2014-Aug-13 21:33N 51°23' E 003°43'5 5.5
2014-Aug-13 20:33N 51°19' E 003°49'6 5.9
2014-Aug-13 19:33N 51°14' E 003°48'8 8.1
2014-Aug-13 18:33N 51°06' E 003°44'1 0.9
2014-Aug-13 17:31N 51°05' E 003°44'0 0.0
2014-Aug-13 16:28N 51°05' E 003°44'0 0.0
2014-Aug-13 15:31N 51°05' E 003°44'0 0.0
2014-Aug-13 14:32N 51°05' E 003°44'0 0.0
2014-Aug-13 13:32N 51°05' E 003°44'0 0.0
2014-Aug-13 12:32N 51°05' E 003°44'0 0.0
2014-Aug-13 11:32N 51°05' E 003°44'0 0.0
2014-Aug-13 10:32N 51°05' E 003°44'0 0.0
2014-Aug-13 09:26N 51°05' E 003°44'0 0.0
2014-Aug-13 08:34N 51°05' E 003°44'0 0.0
2014-Aug-13 07:33N 51°05' E 003°44'0 0.0
2014-Aug-13 06:32N 51°05' E 003°44'0 0.0
2014-Aug-13 05:24N 51°05' E 003°44'0 0.0
2014-Aug-13 04:30N 51°05' E 003°44'0 0.2
2014-Aug-13 03:33N 51°05' E 003°44'8 7.8
2014-Aug-13 02:33N 51°13' E 003°48'7 6.9
2014-Aug-13 01:33N 51°20' E 003°49'1 0.9
2014-Aug-13 00:34N 51°20' E 003°49'5 5.4
2014-Aug-12 23:33N 51°24' E 003°42'  

Dump ship's entire track history